createdAt,value
2022-08-02T00:02:10.006Z,20.30
2022-08-02T00:05:14.017Z,20.26
2022-08-02T00:08:16.848Z,20.27
2022-08-02T00:11:19.626Z,20.28
2022-08-02T00:14:22.245Z,20.31
2022-08-02T00:17:26.508Z,20.33
2022-08-02T00:20:29.190Z,20.30
2022-08-02T00:23:32.064Z,20.29
2022-08-02T00:26:34.736Z,20.24
2022-08-02T00:29:50.430Z,20.25
2022-08-02T00:32:57.162Z,20.24
2022-08-02T00:35:59.922Z,20.28
2022-08-02T00:39:02.589Z,20.25
2022-08-02T00:42:05.780Z,20.19
2022-08-02T00:45:09.720Z,20.16
2022-08-02T00:48:14.521Z,20.06
2022-08-02T00:51:18.072Z,20.08
2022-08-02T00:54:21.088Z,20.06
2022-08-02T00:57:23.909Z,20.06
2022-08-02T01:00:29.784Z,19.97
2022-08-02T01:03:34.258Z,20.00
2022-08-02T01:06:37.137Z,19.94
2022-08-02T01:09:39.937Z,19.95
2022-08-02T01:12:42.675Z,20.01
2022-08-02T01:15:52.967Z,20.09
2022-08-02T01:19:03.150Z,20.05
2022-08-02T01:22:18.680Z,19.99
2022-08-02T01:25:35.263Z,19.97
2022-08-02T01:28:44.362Z,20.06
2022-08-02T01:31:52.010Z,20.10
2022-08-02T01:34:59.223Z,20.12
2022-08-02T01:38:08.641Z,20.13
2022-08-02T01:41:17.600Z,20.13
2022-08-02T01:44:27.559Z,20.04
2022-08-02T01:47:35.540Z,20.01
2022-08-02T01:50:39.286Z,20.02
2022-08-02T01:53:44.879Z,20.02
2022-08-02T01:56:50.128Z,19.97
2022-08-02T01:59:58.966Z,19.93
2022-08-02T02:03:07.017Z,19.90
2022-08-02T02:06:11.572Z,19.87
2022-08-02T02:09:16.405Z,19.89
2022-08-02T02:12:20.914Z,19.87
2022-08-02T02:15:26.468Z,19.88
2022-08-02T02:18:31.697Z,19.92
2022-08-02T02:21:35.100Z,19.95
2022-08-02T02:24:38.099Z,19.90
2022-08-02T02:27:45.961Z,19.78
2022-08-02T02:30:53.280Z,19.79
2022-08-02T02:34:02.522Z,19.68
2022-08-02T02:37:09.308Z,19.55
2022-08-02T02:40:14.221Z,19.41
2022-08-02T02:43:18.580Z,19.38
2022-08-02T02:46:24.262Z,19.27
2022-08-02T02:49:29.049Z,19.23
2022-08-02T02:52:32.841Z,19.19
2022-08-02T02:55:35.947Z,19.16
2022-08-02T02:58:39.669Z,19.21
2022-08-02T03:01:56.638Z,19.23
2022-08-02T03:05:02.864Z,19.18
2022-08-02T03:08:06.176Z,19.14
2022-08-02T03:11:09.985Z,19.11
2022-08-02T03:14:13.842Z,19.06
2022-08-02T03:17:18.095Z,19.07
2022-08-02T03:20:22.684Z,19.05
2022-08-02T03:23:25.392Z,18.92
2022-08-02T03:26:28.088Z,18.95
2022-08-02T03:29:34.452Z,18.93
2022-08-02T03:32:41.633Z,18.90
2022-08-02T03:35:45.163Z,18.90
2022-08-02T03:38:48.902Z,18.85
2022-08-02T03:41:52.352Z,18.77
2022-08-02T03:44:56.391Z,18.75
2022-08-02T03:48:00.859Z,18.66
2022-08-02T03:51:03.872Z,18.79
2022-08-02T03:54:07.468Z,18.77
2022-08-02T03:57:11.547Z,18.75
2022-08-02T04:00:19.533Z,18.77
2022-08-02T04:03:23.576Z,18.66
2022-08-02T04:06:28.388Z,18.73
2022-08-02T04:09:31.299Z,18.70
2022-08-02T04:12:34.242Z,18.79
2022-08-02T04:15:37.742Z,18.75
2022-08-02T04:18:47.671Z,18.79
2022-08-02T04:21:52.773Z,18.83
2022-08-02T04:24:59.775Z,18.86
2022-08-02T04:28:17.379Z,18.96
2022-08-02T04:31:22.104Z,19.07
2022-08-02T04:34:26.586Z,19.09
2022-08-02T04:37:29.507Z,19.18
2022-08-02T04:40:32.335Z,19.43
2022-08-02T04:43:35.117Z,19.66
2022-08-02T04:46:38.403Z,19.95
2022-08-02T04:49:42.575Z,20.25
2022-08-02T04:52:45.997Z,20.60
2022-08-02T04:55:49.031Z,21.04
2022-08-02T04:58:51.675Z,21.60
2022-08-02T05:01:54.645Z,22.10
2022-08-02T05:04:58.672Z,22.12
2022-08-02T05:08:01.500Z,21.49
2022-08-02T05:11:04.467Z,21.92
2022-08-02T05:14:07.189Z,22.61
2022-08-02T05:17:09.967Z,23.20
2022-08-02T05:20:14.548Z,23.61
2022-08-02T05:23:17.291Z,23.93
2022-08-02T05:26:19.969Z,24.08
2022-08-02T05:29:23.280Z,24.25
2022-08-02T05:32:25.897Z,24.64
2022-08-02T05:35:29.996Z,24.73
2022-08-02T05:38:32.780Z,24.61
2022-08-02T05:41:39.969Z,24.75
2022-08-02T05:44:42.766Z,24.83
2022-08-02T05:47:45.521Z,25.15
2022-08-02T05:50:55.368Z,25.49
2022-08-02T05:54:07.920Z,25.73
2022-08-02T05:57:18.323Z,26.21
2022-08-02T06:00:23.284Z,26.27
2022-08-02T06:03:27.149Z,25.82
2022-08-02T06:06:34.463Z,26.62
2022-08-02T06:09:39.548Z,27.04
2022-08-02T06:12:48.468Z,27.16
2022-08-02T06:15:53.973Z,27.18
2022-08-02T06:18:57.068Z,27.32
2022-08-02T06:22:32.746Z,27.69
2022-08-02T06:25:51.181Z,27.58
2022-08-02T06:28:55.997Z,27.71
2022-08-02T06:31:59.988Z,28.02
2022-08-02T06:35:02.811Z,27.71
2022-08-02T06:38:08.152Z,27.96
2022-08-02T06:41:15.641Z,28.11
2022-08-02T06:47:41.219Z,28.52
2022-08-02T06:50:44.293Z,28.05
2022-08-02T06:53:49.008Z,28.37
2022-08-02T06:56:51.789Z,28.35
2022-08-02T06:59:54.741Z,28.58
2022-08-02T07:02:58.219Z,28.77
2022-08-02T07:06:01.264Z,28.21
2022-08-02T07:09:21.912Z,27.76
2022-08-02T07:12:24.890Z,28.31
2022-08-02T07:15:27.871Z,28.80
2022-08-02T07:18:30.734Z,29.01
2022-08-02T07:21:57.875Z,29.03
2022-08-02T07:24:59.282Z,29.27
2022-08-02T07:28:02.042Z,29.52
2022-08-02T07:31:04.661Z,29.24
2022-08-02T07:34:07.500Z,29.40
2022-08-02T07:37:13.752Z,29.95
2022-08-02T07:40:34.741Z,30.22
2022-08-02T07:43:37.542Z,30.87
2022-08-02T07:46:42.211Z,30.45
2022-08-02T07:49:44.993Z,31.18
2022-08-02T07:52:48.255Z,30.87
2022-08-02T07:55:52.416Z,30.80
2022-08-02T07:58:55.133Z,30.80
2022-08-02T08:01:58.344Z,30.59
2022-08-02T08:05:01.137Z,29.70
2022-08-02T08:08:03.790Z,29.80
2022-08-02T08:11:07.864Z,30.68
2022-08-02T08:14:16.184Z,30.39
2022-08-02T08:17:19.667Z,30.49
2022-08-02T08:20:22.584Z,31.17
2022-08-02T08:23:25.499Z,29.45
2022-08-02T08:26:29.597Z,29.72
2022-08-02T08:29:32.432Z,29.97
2022-08-02T08:32:35.185Z,30.94
2022-08-02T08:35:38.239Z,31.16
2022-08-02T08:38:41.037Z,30.86
2022-08-02T08:41:45.301Z,31.23
2022-08-02T08:44:48.058Z,31.44
2022-08-02T08:47:53.900Z,31.39
2022-08-02T08:51:01.801Z,31.60
2022-08-02T08:54:06.113Z,31.02
2022-08-02T08:57:10.932Z,31.60
2022-08-02T09:00:17.159Z,31.04
2022-08-02T09:03:19.836Z,32.09
2022-08-02T09:06:22.763Z,31.87
2022-08-02T09:09:25.800Z,31.56
2022-08-02T09:12:29.763Z,31.90
2022-08-02T09:15:32.533Z,30.59
2022-08-02T09:18:37.323Z,31.30
2022-08-02T09:21:39.956Z,31.88
2022-08-02T09:24:44.890Z,32.54
2022-08-02T09:27:51.415Z,32.84
2022-08-02T09:30:54.280Z,31.94
2022-08-02T09:33:59.372Z,32.28
2022-08-02T09:37:02.184Z,31.78
2022-08-02T09:40:07.011Z,32.33
2022-08-02T09:43:11.762Z,32.32
2022-08-02T09:46:16.691Z,32.67
2022-08-02T09:49:20.650Z,32.63
2022-08-02T09:52:24.348Z,32.12
2022-08-02T09:55:57.134Z,32.09
2022-08-02T09:59:07.931Z,31.63
2022-08-02T10:02:17.691Z,31.76
2022-08-02T10:05:22.611Z,31.53
2022-08-02T10:08:26.676Z,32.02
2022-08-02T10:11:29.649Z,31.96
2022-08-02T10:14:35.186Z,32.60
2022-08-02T10:17:38.632Z,32.56
2022-08-02T10:20:45.408Z,32.23
2022-08-02T10:23:50.637Z,32.95
2022-08-02T10:26:54.010Z,32.45
2022-08-02T10:30:00.769Z,32.56
2022-08-02T10:33:05.158Z,31.87
2022-08-02T10:36:10.472Z,31.00
2022-08-02T10:39:13.835Z,31.66
2022-08-02T10:42:47.052Z,31.22
2022-08-02T10:45:51.973Z,32.19
2022-08-02T10:49:36.166Z,32.28
2022-08-02T10:52:31.436Z,32.79
2022-08-02T10:55:46.269Z,32.87
2022-08-02T10:58:49.063Z,33.11
2022-08-02T11:02:00.855Z,32.76
2022-08-02T11:05:08.229Z,33.24
2022-08-02T11:08:20.844Z,33.32
2022-08-02T11:11:54.344Z,32.93
2022-08-02T11:14:48.034Z,32.82
2022-08-02T11:17:55.263Z,32.88
2022-08-02T11:21:23.056Z,33.00
2022-08-02T11:24:29.324Z,32.51
2022-08-02T11:27:32.118Z,31.78
2022-08-02T11:30:35.096Z,31.41
2022-08-02T11:33:39.370Z,32.21
2022-08-02T11:36:47.203Z,32.14
2022-08-02T11:39:51.806Z,32.47
2022-08-02T11:42:54.690Z,32.99
2022-08-02T11:45:57.645Z,33.19
2022-08-02T11:49:12.955Z,33.36
2022-08-02T11:52:16.116Z,33.21
2022-08-02T11:55:19.020Z,33.04
2022-08-02T11:58:21.649Z,33.32
2022-08-02T12:01:24.445Z,33.24
2022-08-02T12:04:28.463Z,33.16
2022-08-02T12:07:34.601Z,32.90
2022-08-02T12:10:37.879Z,32.63
2022-08-02T12:13:44.627Z,32.90
2022-08-02T12:17:18.220Z,32.76
2022-08-02T12:20:35.404Z,32.79
2022-08-02T12:23:59.812Z,32.55
2022-08-02T12:27:03.711Z,32.92
2022-08-02T12:30:09.324Z,32.60
2022-08-02T12:33:13.252Z,32.36
2022-08-02T12:36:19.132Z,31.73
2022-08-02T12:39:21.756Z,31.97
2022-08-02T12:42:24.926Z,32.25
2022-08-02T12:45:38.365Z,32.02
2022-08-02T12:49:02.362Z,32.24
2022-08-02T12:52:21.798Z,32.33
2022-08-02T12:55:59.246Z,32.23
2022-08-02T12:58:50.433Z,31.88
2022-08-02T13:01:53.129Z,31.74
2022-08-02T13:04:55.918Z,31.86
2022-08-02T13:08:00.653Z,32.08
2022-08-02T13:11:03.312Z,31.31
2022-08-02T13:14:06.110Z,31.47
2022-08-02T13:17:08.926Z,31.09
2022-08-02T13:20:14.580Z,31.33
2022-08-02T13:23:22.141Z,31.22
2022-08-02T13:26:29.590Z,31.20
2022-08-02T13:29:33.898Z,31.37
2022-08-02T13:32:36.648Z,31.07
2022-08-02T13:35:39.360Z,30.81
2022-08-02T13:38:43.334Z,31.11
2022-08-02T13:41:45.973Z,31.20
2022-08-02T13:44:48.698Z,31.11
2022-08-02T13:48:04.634Z,31.07
2022-08-02T13:51:14.721Z,30.81
2022-08-02T13:54:19.136Z,30.88
2022-08-02T13:57:21.798Z,30.99
2022-08-02T14:00:35.066Z,30.96
2022-08-02T14:04:08.419Z,31.06
2022-08-02T14:07:01.672Z,31.18
2022-08-02T14:10:06.536Z,30.48
2022-08-02T14:13:09.275Z,30.57
2022-08-02T14:16:12.160Z,30.47
2022-08-02T14:19:17.315Z,30.50
2022-08-02T14:22:20.265Z,30.58
2022-08-02T14:25:24.388Z,30.78
2022-08-02T14:28:27.174Z,30.54
2022-08-02T14:31:29.800Z,30.35
2022-08-02T14:34:32.745Z,30.54
2022-08-02T14:37:35.652Z,30.37
2022-08-02T14:40:39.764Z,30.40
2022-08-02T14:44:00.002Z,30.53
2022-08-02T14:47:02.752Z,30.80
2022-08-02T14:50:06.238Z,30.35
2022-08-02T14:53:12.429Z,30.16
2022-08-02T14:56:17.223Z,30.00
2022-08-02T14:59:19.890Z,30.28
2022-08-02T15:02:22.696Z,30.14
2022-08-02T15:05:25.308Z,30.07
2022-08-02T15:08:27.975Z,30.13
2022-08-02T15:11:47.593Z,29.92
2022-08-02T15:14:51.179Z,30.10
2022-08-02T15:17:53.843Z,30.00
2022-08-02T15:20:57.731Z,29.96
2022-08-02T15:24:00.970Z,29.74
2022-08-02T15:27:10.359Z,29.36
2022-08-02T15:30:13.571Z,29.49
2022-08-02T15:33:16.215Z,29.36
2022-08-02T15:36:19.077Z,29.47
2022-08-02T15:39:21.942Z,29.58
2022-08-02T15:42:30.678Z,29.64
2022-08-02T15:45:35.872Z,29.32
2022-08-02T15:48:39.266Z,29.24
2022-08-02T15:51:41.937Z,29.28
2022-08-02T15:54:44.777Z,29.32
2022-08-02T15:57:48.780Z,29.34
2022-08-02T16:00:51.737Z,29.30
2022-08-02T16:03:54.420Z,29.32
2022-08-02T16:06:57.797Z,29.24
2022-08-02T16:10:04.900Z,29.16
2022-08-02T16:13:26.369Z,29.21
2022-08-02T16:16:31.003Z,29.20
2022-08-02T16:19:48.788Z,29.24
2022-08-02T16:22:52.691Z,29.08
2022-08-02T16:25:55.350Z,29.06
2022-08-02T16:29:00.303Z,29.01
2022-08-02T16:32:02.968Z,29.01
2022-08-02T16:35:07.064Z,28.93
2022-08-02T16:38:11.700Z,28.93
2022-08-02T16:41:16.309Z,28.92
2022-08-02T16:44:29.103Z,28.88
2022-08-02T16:47:42.696Z,28.74
2022-08-02T16:50:47.163Z,28.66
2022-08-02T16:53:59.876Z,28.59
2022-08-02T16:57:05.101Z,28.54
2022-08-02T17:00:11.097Z,28.53
2022-08-02T17:03:13.909Z,28.39
2022-08-02T17:06:17.193Z,28.37
2022-08-02T17:10:03.830Z,28.31
2022-08-02T17:12:43.160Z,28.15
2022-08-02T17:16:17.347Z,28.10
2022-08-02T17:19:10.173Z,28.03
2022-08-02T17:22:13.018Z,27.95
2022-08-02T17:25:17.611Z,27.86
2022-08-02T17:28:20.359Z,27.86
2022-08-02T17:31:29.870Z,27.79
2022-08-02T17:34:33.420Z,27.79
2022-08-02T17:37:41.506Z,27.71
2022-08-02T17:40:44.577Z,27.63
2022-08-02T17:43:47.365Z,27.56
2022-08-02T17:46:51.519Z,27.47
2022-08-02T17:49:54.655Z,27.37
2022-08-02T17:52:57.726Z,27.30
2022-08-02T17:56:00.579Z,27.22
2022-08-02T17:59:11.541Z,27.16
2022-08-02T18:02:24.459Z,27.07
2022-08-02T18:05:40.359Z,27.01
2022-08-02T18:08:50.104Z,26.85
2022-08-02T18:11:54.687Z,26.72
2022-08-02T18:14:57.616Z,26.67
2022-08-02T18:18:01.838Z,26.55
2022-08-02T18:21:15.689Z,26.40
2022-08-02T18:24:25.292Z,26.31
2022-08-02T18:27:31.543Z,26.22
2022-08-02T18:30:35.408Z,26.10
2022-08-02T18:33:59.169Z,26.00
2022-08-02T18:37:03.783Z,25.86
2022-08-02T18:40:07.832Z,25.77
2022-08-02T18:43:11.042Z,25.64
2022-08-02T18:46:17.311Z,25.52
2022-08-02T18:49:30.078Z,25.43
2022-08-02T18:52:48.872Z,25.34
2022-08-02T18:56:03.572Z,25.27
2022-08-02T18:59:07.573Z,25.13
2022-08-02T19:02:10.888Z,25.01
2022-08-02T19:05:15.236Z,24.91
2022-08-02T19:08:18.370Z,24.85
2022-08-02T19:11:21.036Z,24.82
2022-08-02T19:14:27.830Z,24.78
2022-08-02T19:17:55.688Z,24.71
2022-08-02T19:20:59.604Z,24.67
2022-08-02T19:24:05.979Z,24.57
2022-08-02T19:27:13.201Z,24.49
2022-08-02T19:30:18.382Z,24.41
2022-08-02T19:33:24.885Z,24.33
2022-08-02T19:36:29.273Z,24.24
2022-08-02T19:39:32.198Z,24.15
2022-08-02T19:44:24.134Z,24.03
2022-08-02T19:46:05.188Z,23.88
2022-08-02T19:49:16.528Z,23.78
2022-08-02T19:52:25.245Z,23.70
2022-08-02T19:56:00.072Z,23.62
2022-08-02T19:58:52.002Z,23.56
2022-08-02T20:01:54.981Z,23.52
2022-08-02T20:04:57.891Z,23.44
2022-08-02T20:08:02.577Z,23.36
2022-08-02T20:11:14.872Z,23.32
2022-08-02T20:14:17.972Z,23.28
2022-08-02T20:17:31.643Z,23.20
2022-08-02T20:20:37.073Z,23.17
2022-08-02T20:23:42.568Z,23.15
2022-08-02T20:26:47.830Z,23.14
2022-08-02T20:29:50.947Z,23.11
2022-08-02T20:32:58.867Z,23.04
2022-08-02T20:36:18.866Z,23.00
2022-08-02T20:39:23.089Z,22.95
2022-08-02T20:42:47.914Z,22.90
2022-08-02T20:45:51.688Z,22.85
2022-08-02T20:48:57.498Z,22.78
2022-08-02T20:52:04.347Z,22.66
2022-08-02T20:55:30.871Z,22.60
2022-08-02T20:58:34.396Z,22.53
2022-08-02T21:01:37.716Z,22.48
2022-08-02T21:04:41.927Z,22.42
2022-08-02T21:07:47.665Z,22.36
2022-08-02T21:10:53.334Z,22.28
2022-08-02T21:14:07.522Z,22.20
2022-08-02T21:17:11.712Z,22.16
2022-08-02T21:20:27.200Z,22.05
2022-08-02T21:23:36.287Z,21.98
2022-08-02T21:26:40.831Z,21.97
2022-08-02T21:29:44.776Z,21.92
2022-08-02T21:32:50.512Z,21.85
2022-08-02T21:35:54.526Z,21.77
2022-08-02T21:38:57.920Z,21.70
2022-08-02T21:42:02.194Z,21.67
2022-08-02T21:48:29.187Z,21.60
2022-08-02T21:51:34.140Z,21.60
2022-08-02T21:54:40.131Z,21.59
2022-08-02T21:57:44.855Z,21.56
2022-08-02T22:00:48.195Z,21.52
2022-08-02T22:03:55.610Z,21.52
2022-08-02T22:06:58.829Z,21.51
2022-08-02T22:10:01.464Z,21.47
2022-08-02T22:13:06.931Z,21.42
2022-08-02T22:16:18.351Z,21.38
2022-08-02T22:19:21.433Z,21.36
2022-08-02T22:22:28.293Z,21.39
2022-08-02T22:25:36.496Z,21.38
2022-08-02T22:28:50.475Z,21.35
2022-08-02T22:31:55.737Z,21.31
2022-08-02T22:34:58.194Z,21.34
2022-08-02T22:38:17.198Z,21.28
2022-08-02T22:41:22.580Z,21.25
2022-08-02T22:44:26.669Z,21.25
2022-08-02T22:47:29.481Z,21.28
2022-08-02T22:50:41.460Z,21.23
2022-08-02T22:53:45.301Z,21.24
2022-08-02T22:56:48.237Z,21.26
2022-08-02T22:59:11.024Z,21.63
2022-08-02T22:59:52.591Z,21.25
2022-08-02T23:02:55.356Z,21.27
2022-08-02T23:05:58.036Z,21.26
2022-08-02T23:09:00.803Z,21.24
2022-08-02T23:12:03.627Z,21.20
2022-08-02T23:15:09.212Z,21.20
2022-08-02T23:18:31.712Z,21.15
2022-08-02T23:22:01.834Z,21.15
2022-08-02T23:24:57.662Z,21.15
2022-08-02T23:28:00.421Z,21.12
2022-08-02T23:31:28.339Z,21.12
2022-08-02T23:34:31.183Z,21.11
2022-08-02T23:37:59.131Z,21.09
2022-08-02T23:40:56.562Z,21.08
2022-08-02T23:44:13.051Z,21.06
2022-08-02T23:47:17.915Z,21.06
2022-08-02T23:50:20.794Z,21.04
2022-08-02T23:53:23.409Z,21.03
2022-08-02T23:56:26.167Z,21.01
2022-08-02T23:59:28.864Z,20.96
